Date,TemperatureHighF,TemperatureAvgF,TemperatureLowF,DewpointHighF,DewpointAvgF,DewpointLowF,HumidityHigh,HumidityAvg,HumidityLow,PressureMaxIn,PressureMinIn,WindSpeedMaxMPH,WindSpeedAvgMPH,GustSpeedMaxMPH,PrecipitationSumIn
2013-2-1,20.5,14.0,6.8,19.1,6.3,0.2,94,71,59,30.20,29.79,19,5,0,0.00
2013-2-2,33.8,26.1,15.4,31.0,22.7,10.9,97,87,79,30.09,29.76,10,4,0,0.00
2013-2-3,29.7,27.6,20.3,26.2,23.5,17.3,92,84,79,29.91,29.71,10,4,0,0.00
2013-2-4,45.3,31.5,13.8,41.3,26.6,13.6,99,84,55,29.90,29.60,10,3,0,0.14
2013-2-5,49.5,43.3,38.1,41.3,38.0,32.8,99,83,58,29.80,29.63,9,4,0,0.00
2013-2-6,46.0,35.5,26.2,34.1,30.8,26.0,99,84,60,30.02,29.81,6,2,0,0.00
2013-2-7,62.8,47.1,34.2,39.7,34.1,30.7,88,64,38,29.96,29.64,6,3,0,0.00
2013-2-8,47.5,38.6,33.1,46.8,34.6,29.4,99,86,64,30.10,29.61,9,4,0,0.07
2013-2-9,43.0,33.1,23.9,29.2,23.4,20.7,90,69,43,30.20,29.99,6,2,0,0.00
2013-2-10,58.8,44.6,28.9,48.4,32.0,20.7,96,64,33,29.98,29.62,12,5,0,0.13
2013-2-11,54.5,49.3,40.8,52.5,36.9,26.3,96,65,42,29.87,29.62,16,7,0,0.00
2013-2-12,49.6,39.6,28.9,29.1,26.9,24.9,87,62,41,29.94,29.67,6,2,0,0.00
2013-2-13,38.5,35.5,31.3,34.7,31.1,27.6,97,85,70,29.72,29.52,8,2,0,0.05
2013-2-14,54.1,40.8,29.8,38.7,33.6,29.6,99,78,48,29.75,29.64,11,4,0,0.00
2013-2-15,42.6,36.9,27.1,34.7,30.4,22.5,89,77,60,29.92,29.76,8,3,0,0.00
2013-2-16,33.3,26.3,19.0,22.9,17.2,9.8,99,71,42,29.91,29.79,11,3,0,0.00
2013-2-17,35.4,25.1,17.2,15.6,11.7,7.8,87,58,32,30.03,29.89,8,2,0,0.00
2013-2-18,59.4,42.8,24.3,36.9,24.9,11.5,64,50,39,29.99,29.58,12,6,0,0.00
2013-2-19,47.3,36.9,25.2,40.9,27.9,16.3,97,71,45,29.92,29.53,18,8,0,0.18
2013-2-20,32.5,26.0,19.4,17.7,14.6,11.9,74,62,50,30.05,29.92,12,4,0,0.00
2013-2-21,36.5,27.4,16.5,28.8,19.3,13.4,93,72,54,30.10,29.79,9,4,0,0.02
2013-2-22,60.3,44.3,30.7,47.5,39.5,28.9,99,85,55,29.80,29.67,12,4,0,0.01
2013-2-23,47.8,39.6,34.0,38.5,30.4,24.2,90,71,46,29.78,29.66,7,3,0,0.00
2013-2-24,46.0,34.4,25.7,27.5,24.7,22.3,87,69,47,29.90,29.72,7,2,0,0.00
2013-2-25,48.0,35.6,23.2,28.2,24.4,20.9,92,66,42,29.91,29.61,10,4,0,0.00
2013-2-26,54.9,45.8,39.4,51.4,40.7,25.0,97,83,56,29.61,29.14,12,5,0,0.35
2013-2-27,39.2,36.5,33.3,37.2,34.5,31.2,97,92,81,29.56,29.36,14,7,0,0.03
2013-2-28,34.3,33.0,31.6,33.7,31.2,29.0,99,93,90,29.74,29.53,13,6,0,0.00